sensor_id;sensor_type;location;lat;lon;timestamp;pressure;altitude;pressure_sealevel;temperature;humidity
74268;BME280;62638;51.362;12.472;2023-02-28T00:01:14;101534.63;;;-0.20;78.99
74268;BME280;62638;51.362;12.472;2023-02-28T01:40:28;101523.72;;;-0.37;81.18
74268;BME280;62638;51.362;12.472;2023-02-28T01:42:53;101513.34;;;-0.42;81.21
74268;BME280;62638;51.362;12.472;2023-02-28T01:45:31;101515.19;;;-0.46;81.76
74268;BME280;62638;51.362;12.472;2023-02-28T01:48:05;101522.81;;;-0.35;81.59
74268;BME280;62638;51.362;12.472;2023-02-28T01:50:37;101516.56;;;-0.32;81.56
74268;BME280;62638;51.362;12.472;2023-02-28T01:53:06;101521.94;;;-0.35;82.05
74268;BME280;62638;51.362;12.472;2023-02-28T01:55:32;101515.09;;;-0.42;82.55
74268;BME280;62638;51.362;12.472;2023-02-28T01:58:00;101517.72;;;-0.42;82.56
74268;BME280;62638;51.362;12.472;2023-02-28T02:00:28;101510.63;;;-0.39;82.22
74268;BME280;62638;51.362;12.472;2023-02-28T02:03:01;101496.78;;;-0.46;81.82
74268;BME280;62638;51.362;12.472;2023-02-28T02:05:30;101499.31;;;-0.42;81.50
74268;BME280;62638;51.362;12.472;2023-02-28T02:08:05;101496.91;;;-0.50;81.72
74268;BME280;62638;51.362;12.472;2023-02-28T02:10:50;101499.53;;;-0.50;82.21
74268;BME280;62638;51.362;12.472;2023-02-28T02:13:47;101499.72;;;-0.56;82.68
74268;BME280;62638;51.362;12.472;2023-02-28T02:18:53;101494.03;;;-0.73;83.67
74268;BME280;62638;51.362;12.472;2023-02-28T02:21:46;101499.19;;;-0.69;84.25
74268;BME280;62638;51.362;12.472;2023-02-28T02:27:27;101497.41;;;-0.68;83.35
74268;BME280;62638;51.362;12.472;2023-02-28T02:35:24;101495.91;;;-0.77;83.59
74268;BME280;62638;51.362;12.472;2023-02-28T02:40:37;101501.97;;;-1.07;85.14
74268;BME280;62638;51.362;12.472;2023-02-28T02:43:16;101500.50;;;-1.17;85.46
74268;BME280;62638;51.362;12.472;2023-02-28T02:45:45;101502.19;;;-1.15;85.68
74268;BME280;62638;51.362;12.472;2023-02-28T02:48:17;101486.19;;;-1.40;86.47
74268;BME280;62638;51.362;12.472;2023-02-28T02:50:46;101500.34;;;-1.45;86.98
74268;BME280;62638;51.362;12.472;2023-02-28T02:53:17;101497.78;;;-1.48;87.64
74268;BME280;62638;51.362;12.472;2023-02-28T02:55:47;101499.56;;;-1.50;87.90
74268;BME280;62638;51.362;12.472;2023-02-28T02:58:19;101499.56;;;-1.50;87.64
74268;BME280;62638;51.362;12.472;2023-02-28T03:00:50;101499.63;;;-1.52;87.42
74268;BME280;62638;51.362;12.472;2023-02-28T03:03:19;101497.78;;;-1.48;87.12
74268;BME280;62638;51.362;12.472;2023-02-28T03:05:55;101496.13;;;-1.52;86.89
74268;BME280;62638;51.362;12.472;2023-02-28T03:08:21;101499.00;;;-1.63;87.80
74268;BME280;62638;51.362;12.472;2023-02-28T03:10:50;101501.81;;;-1.70;88.17
74268;BME280;62638;51.362;12.472;2023-02-28T03:13:48;101502.22;;;-1.87;88.86
74268;BME280;62638;51.362;12.472;2023-02-28T03:16:38;101498.03;;;-1.94;89.25
74268;BME280;62638;51.362;12.472;2023-02-28T03:24:50;101503.47;;;-2.03;89.70
74268;BME280;62638;51.362;12.472;2023-02-28T03:27:24;101506.03;;;-2.02;89.72
74268;BME280;62638;51.362;12.472;2023-02-28T03:30:00;101507.84;;;-2.04;89.61
74268;BME280;62638;51.362;12.472;2023-02-28T03:32:33;101501.25;;;-2.21;90.29
74268;BME280;62638;51.362;12.472;2023-02-28T03:35:14;101503.31;;;-2.37;91.11
74268;BME280;62638;51.362;12.472;2023-02-28T03:37:48;101502.47;;;-2.38;91.45
74268;BME280;62638;51.362;12.472;2023-02-28T03:40:17;101504.25;;;-2.40;91.94
74268;BME280;62638;51.362;12.472;2023-02-28T03:42:48;101496.31;;;-2.37;92.08
74268;BME280;62638;51.362;12.472;2023-02-28T03:45:19;101494.50;;;-2.33;92.25
74268;BME280;62638;51.362;12.472;2023-02-28T03:47:54;101499.06;;;-2.03;91.16
74268;BME280;62638;51.362;12.472;2023-02-28T03:50:29;101500.56;;;-1.91;90.49
74268;BME280;62638;51.362;12.472;2023-02-28T03:53:04;101504.81;;;-1.86;90.28
74268;BME280;62638;51.362;12.472;2023-02-28T03:55:39;101494.91;;;-1.74;89.62
74268;BME280;62638;51.362;12.472;2023-02-28T04:00:40;101505.81;;;-1.54;88.70
74268;BME280;62638;51.362;12.472;2023-02-28T04:03:08;101508.00;;;-1.36;87.67
74268;BME280;62638;51.362;12.472;2023-02-28T04:05:46;101520.28;;;-1.38;87.72
74268;BME280;62638;51.362;12.472;2023-02-28T04:08:14;101516.88;;;-1.42;87.37
74268;BME280;62638;51.362;12.472;2023-02-28T04:10:39;101514.34;;;-1.45;87.74
74268;BME280;62638;51.362;12.472;2023-02-28T04:13:05;101518.38;;;-1.30;87.25
74268;BME280;62638;51.362;12.472;2023-02-28T04:15:30;101516.34;;;-1.20;86.59
74268;BME280;62638;51.362;12.472;2023-02-28T04:17:57;101516.22;;;-1.16;85.57
74268;BME280;62638;51.362;12.472;2023-02-28T04:20:22;101513.47;;;-1.11;85.08
74268;BME280;62638;51.362;12.472;2023-02-28T04:22:47;101514.75;;;-1.26;85.01
74268;BME280;62638;51.362;12.472;2023-02-28T04:25:12;101519.94;;;-1.24;85.25
74268;BME280;62638;51.362;12.472;2023-02-28T04:27:38;101521.88;;;-1.31;85.59
74268;BME280;62638;51.362;12.472;2023-02-28T04:30:03;101533.19;;;-1.29;85.20
74268;BME280;62638;51.362;12.472;2023-02-28T04:32:28;101523.75;;;-1.36;85.42
74268;BME280;62638;51.362;12.472;2023-02-28T04:34:54;101524.94;;;-1.49;85.86
74268;BME280;62638;51.362;12.472;2023-02-28T04:37:19;101521.66;;;-1.57;85.99
74268;BME280;62638;51.362;12.472;2023-02-28T04:39:44;101521.84;;;-1.66;86.79
74268;BME280;62638;51.362;12.472;2023-02-28T04:42:10;101523.63;;;-1.67;86.88
74268;BME280;62638;51.362;12.472;2023-02-28T04:44:36;101526.06;;;-1.59;86.02
74268;BME280;62638;51.362;12.472;2023-02-28T04:47:01;101531.88;;;-1.47;85.27
74268;BME280;62638;51.362;12.472;2023-02-28T04:49:27;101529.31;;;-1.48;85.05
74268;BME280;62638;51.362;12.472;2023-02-28T04:51:52;101522.19;;;-1.43;85.30
74268;BME280;62638;51.362;12.472;2023-02-28T04:54:18;101532.06;;;-1.53;85.30
74268;BME280;62638;51.362;12.472;2023-02-28T04:56:43;101523.22;;;-1.50;85.47
74268;BME280;62638;51.362;12.472;2023-02-28T04:59:08;101530.19;;;-1.48;84.91
74268;BME280;62638;51.362;12.472;2023-02-28T05:01:33;101529.22;;;-1.44;84.71
74268;BME280;62638;51.362;12.472;2023-02-28T05:04:01;101529.09;;;-1.39;84.96
74268;BME280;62638;51.362;12.472;2023-02-28T05:06:28;101530.78;;;-1.37;84.84
74268;BME280;62638;51.362;12.472;2023-02-28T05:08:55;101524.63;;;-1.35;84.66
74268;BME280;62638;51.362;12.472;2023-02-28T05:11:30;101531.44;;;-1.28;84.85
74268;BME280;62638;51.362;12.472;2023-02-28T05:14:02;101534.13;;;-1.30;84.51
74268;BME280;62638;51.362;12.472;2023-02-28T05:16:28;101537.00;;;-1.41;84.79
74268;BME280;62638;51.362;12.472;2023-02-28T05:18:53;101530.31;;;-1.54;85.21
74268;BME280;62638;51.362;12.472;2023-02-28T05:21:25;101547.44;;;-1.38;85.27
74268;BME280;62638;51.362;12.472;2023-02-28T05:23:51;101539.03;;;-1.52;85.31
74268;BME280;62638;51.362;12.472;2023-02-28T05:26:17;101534.75;;;-1.56;85.32
74268;BME280;62638;51.362;12.472;2023-02-28T05:28:43;101545.28;;;-1.57;85.61
74268;BME280;62638;51.362;12.472;2023-02-28T05:31:10;101533.22;;;-1.64;84.99
74268;BME280;62638;51.362;12.472;2023-02-28T05:33:36;101540.06;;;-1.59;85.00
74268;BME280;62638;51.362;12.472;2023-02-28T05:36:01;101548.03;;;-1.62;84.67
74268;BME280;62638;51.362;12.472;2023-02-28T05:38:26;101551.03;;;-1.78;85.67
74268;BME280;62638;51.362;12.472;2023-02-28T05:40:52;101537.75;;;-1.72;84.94
74268;BME280;62638;51.362;12.472;2023-02-28T05:43:18;101546.75;;;-1.83;85.54
74268;BME280;62638;51.362;12.472;2023-02-28T05:45:43;101545.22;;;-1.93;86.17
74268;BME280;62638;51.362;12.472;2023-02-28T05:48:09;101544.31;;;-1.92;85.68
74268;BME280;62638;51.362;12.472;2023-02-28T05:50:34;101548.81;;;-1.98;86.12
74268;BME280;62638;51.362;12.472;2023-02-28T05:52:59;101541.97;;;-2.04;85.71
74268;BME280;62638;51.362;12.472;2023-02-28T05:55:24;101551.53;;;-2.01;86.16
74268;BME280;62638;51.362;12.472;2023-02-28T05:57:50;101548.03;;;-2.02;86.61
74268;BME280;62638;51.362;12.472;2023-02-28T06:00:15;101551.34;;;-2.34;86.75
74268;BME280;62638;51.362;12.472;2023-02-28T06:02:42;101566.22;;;-2.34;87.49
74268;BME280;62638;51.362;12.472;2023-02-28T06:05:13;101556.19;;;-2.58;88.03
74268;BME280;62638;51.362;12.472;2023-02-28T06:07:39;101564.13;;;-2.61;89.33
74268;BME280;62638;51.362;12.472;2023-02-28T06:10:04;101569.09;;;-2.46;88.73
74268;BME280;62638;51.362;12.472;2023-02-28T06:12:29;101550.75;;;-2.46;88.12
74268;BME280;62638;51.362;12.472;2023-02-28T06:14:55;101575.78;;;-2.32;87.77
74268;BME280;62638;51.362;12.472;2023-02-28T06:17:20;101575.06;;;-2.40;87.78
74268;BME280;62638;51.362;12.472;2023-02-28T06:19:45;101577.63;;;-2.37;88.09
74268;BME280;62638;51.362;12.472;2023-02-28T06:22:11;101586.53;;;-2.44;88.55
74268;BME280;62638;51.362;12.472;2023-02-28T06:24:36;101579.88;;;-2.63;89.30
74268;BME280;62638;51.362;12.472;2023-02-28T06:27:01;101595.50;;;-2.57;89.53
74268;BME280;62638;51.362;12.472;2023-02-28T06:29:31;101599.81;;;-2.54;89.52
74268;BME280;62638;51.362;12.472;2023-02-28T06:31:56;101598.28;;;-2.66;89.79
74268;BME280;62638;51.362;12.472;2023-02-28T06:34:21;101589.72;;;-2.74;90.18
74268;BME280;62638;51.362;12.472;2023-02-28T06:36:50;101598.59;;;-2.83;90.47
74268;BME280;62638;51.362;12.472;2023-02-28T06:39:15;101597.50;;;-2.71;90.82
74268;BME280;62638;51.362;12.472;2023-02-28T06:41:40;101607.50;;;-2.44;90.85
74268;BME280;62638;51.362;12.472;2023-02-28T06:44:13;101595.63;;;-2.18;89.44
74268;BME280;62638;51.362;12.472;2023-02-28T06:46:40;101601.22;;;-1.92;88.26
74268;BME280;62638;51.362;12.472;2023-02-28T06:49:06;101610.25;;;-1.65;86.82
74268;BME280;62638;51.362;12.472;2023-02-28T06:51:34;101595.38;;;-1.65;86.43
74268;BME280;62638;51.362;12.472;2023-02-28T06:54:00;101612.31;;;-1.41;85.57
74268;BME280;62638;51.362;12.472;2023-02-28T06:56:25;101596.03;;;-1.18;84.43
74268;BME280;62638;51.362;12.472;2023-02-28T06:58:50;101627.19;;;-1.03;83.28
74268;BME280;62638;51.362;12.472;2023-02-28T07:01:18;101621.66;;;-0.91;82.92
74268;BME280;62638;51.362;12.472;2023-02-28T07:03:44;101611.81;;;-0.84;83.41
74268;BME280;62638;51.362;12.472;2023-02-28T07:06:09;101626.31;;;-0.68;81.92
74268;BME280;62638;51.362;12.472;2023-02-28T07:08:35;101622.53;;;-0.57;81.64
74268;BME280;62638;51.362;12.472;2023-02-28T07:11:01;101628.44;;;-0.49;80.54
74268;BME280;62638;51.362;12.472;2023-02-28T07:13:26;101635.16;;;-0.38;80.18
74268;BME280;62638;51.362;12.472;2023-02-28T07:16:00;101626.84;;;-0.22;79.45
74268;BME280;62638;51.362;12.472;2023-02-28T07:18:26;101631.69;;;-0.08;78.55
74268;BME280;62638;51.362;12.472;2023-02-28T07:20:52;101611.81;;;0.13;78.86
74268;BME280;62638;51.362;12.472;2023-02-28T07:23:17;101620.00;;;0.31;78.06
74268;BME280;62638;51.362;12.472;2023-02-28T07:25:42;101631.78;;;0.49;76.78
74268;BME280;62638;51.362;12.472;2023-02-28T07:28:08;101639.88;;;0.43;76.70
74268;BME280;62638;51.362;12.472;2023-02-28T07:30:34;101634.09;;;0.60;76.84
74268;BME280;62638;51.362;12.472;2023-02-28T07:32:59;101634.91;;;0.62;75.03
74268;BME280;62638;51.362;12.472;2023-02-28T07:35:24;101625.72;;;0.47;76.02
74268;BME280;62638;51.362;12.472;2023-02-28T07:37:50;101635.94;;;0.56;77.23
74268;BME280;62638;51.362;12.472;2023-02-28T07:40:15;101637.53;;;0.62;76.57
74268;BME280;62638;51.362;12.472;2023-02-28T07:42:41;101643.69;;;0.90;75.59
74268;BME280;62638;51.362;12.472;2023-02-28T07:45:08;101641.16;;;1.40;73.88
74268;BME280;62638;51.362;12.472;2023-02-28T07:47:36;101638.50;;;1.40;72.86
74268;BME280;62638;51.362;12.472;2023-02-28T07:50:02;101648.56;;;1.55;72.29
74268;BME280;62638;51.362;12.472;2023-02-28T07:52:27;101637.84;;;1.59;71.63
74268;BME280;62638;51.362;12.472;2023-02-28T07:54:52;101632.06;;;1.48;70.16
74268;BME280;62638;51.362;12.472;2023-02-28T07:57:18;101633.31;;;1.12;70.94
74268;BME280;62638;51.362;12.472;2023-02-28T07:59:43;101634.25;;;1.35;70.58
74268;BME280;62638;51.362;12.472;2023-02-28T08:02:16;101631.47;;;1.65;70.99
74268;BME280;62638;51.362;12.472;2023-02-28T08:04:42;101650.22;;;1.82;68.40
74268;BME280;62638;51.362;12.472;2023-02-28T08:07:07;101641.38;;;1.83;67.44
74268;BME280;62638;51.362;12.472;2023-02-28T08:09:33;101640.84;;;1.98;66.55
74268;BME280;62638;51.362;12.472;2023-02-28T08:11:59;101644.25;;;2.02;66.45
74268;BME280;62638;51.362;12.472;2023-02-28T08:14:24;101629.91;;;1.84;65.60
74268;BME280;62638;51.362;12.472;2023-02-28T08:16:49;101638.97;;;2.25;66.34
74268;BME280;62638;51.362;12.472;2023-02-28T08:19:15;101644.63;;;2.61;65.89
74268;BME280;62638;51.362;12.472;2023-02-28T08:21:40;101629.88;;;2.77;62.87
74268;BME280;62638;51.362;12.472;2023-02-28T08:24:06;101637.38;;;2.66;62.34
74268;BME280;62638;51.362;12.472;2023-02-28T08:26:31;101633.03;;;2.87;63.44
74268;BME280;62638;51.362;12.472;2023-02-28T08:28:57;101639.13;;;3.32;61.61
74268;BME280;62638;51.362;12.472;2023-02-28T08:31:22;101641.84;;;2.87;60.48
74268;BME280;62638;51.362;12.472;2023-02-28T08:33:48;101646.56;;;3.01;60.76
74268;BME280;62638;51.362;12.472;2023-02-28T08:36:16;101644.97;;;2.97;58.36
74268;BME280;62638;51.362;12.472;2023-02-28T08:38:41;101642.75;;;2.86;58.66
74268;BME280;62638;51.362;12.472;2023-02-28T08:41:08;101648.13;;;2.85;56.89
74268;BME280;62638;51.362;12.472;2023-02-28T08:43:35;101647.50;;;3.00;57.92
74268;BME280;62638;51.362;12.472;2023-02-28T08:46:00;101654.03;;;2.91;58.17
74268;BME280;62638;51.362;12.472;2023-02-28T08:48:27;101653.19;;;3.11;57.81
74268;BME280;62638;51.362;12.472;2023-02-28T08:51:00;101650.06;;;3.23;57.61
74268;BME280;62638;51.362;12.472;2023-02-28T08:53:26;101650.78;;;3.48;56.74
74268;BME280;62638;51.362;12.472;2023-02-28T08:56:09;101650.13;;;3.84;56.28
74268;BME280;62638;51.362;12.472;2023-02-28T08:58:35;101651.53;;;3.92;55.03
74268;BME280;62638;51.362;12.472;2023-02-28T09:01:07;101656.94;;;3.89;53.81
74268;BME280;62638;51.362;12.472;2023-02-28T09:03:33;101644.63;;;3.88;54.51
74268;BME280;62638;51.362;12.472;2023-02-28T09:06:00;101664.56;;;3.77;53.34
74268;BME280;62638;51.362;12.472;2023-02-28T09:08:27;101653.94;;;3.77;52.38
74268;BME280;62638;51.362;12.472;2023-02-28T09:10:53;101656.88;;;3.71;53.30
74268;BME280;62638;51.362;12.472;2023-02-28T09:13:19;101659.47;;;3.92;53.77
74268;BME280;62638;51.362;12.472;2023-02-28T09:15:45;101659.00;;;3.83;51.70
74268;BME280;62638;51.362;12.472;2023-02-28T09:18:10;101660.78;;;3.62;51.61
74268;BME280;62638;51.362;12.472;2023-02-28T09:20:40;101662.19;;;3.29;52.23
74268;BME280;62638;51.362;12.472;2023-02-28T09:23:06;101668.00;;;3.79;51.95
74268;BME280;62638;51.362;12.472;2023-02-28T09:25:32;101664.47;;;3.98;52.70
74268;BME280;62638;51.362;12.472;2023-02-28T09:27:58;101667.63;;;3.88;50.96
74268;BME280;62638;51.362;12.472;2023-02-28T09:30:23;101657.41;;;3.79;52.55
74268;BME280;62638;51.362;12.472;2023-02-28T09:32:48;101666.44;;;3.75;52.71
74268;BME280;62638;51.362;12.472;2023-02-28T09:35:24;101663.91;;;3.30;51.75
74268;BME280;62638;51.362;12.472;2023-02-28T09:37:52;101646.22;;;3.10;52.74
74268;BME280;62638;51.362;12.472;2023-02-28T09:40:18;101662.28;;;3.47;52.79
74268;BME280;62638;51.362;12.472;2023-02-28T09:42:46;101657.09;;;3.02;51.96
74268;BME280;62638;51.362;12.472;2023-02-28T09:45:23;101668.53;;;3.67;53.92
74268;BME280;62638;51.362;12.472;2023-02-28T09:47:52;101657.75;;;4.10;52.58
74268;BME280;62638;51.362;12.472;2023-02-28T09:50:46;101646.06;;;3.95;49.49
74268;BME280;62638;51.362;12.472;2023-02-28T09:53:22;101663.34;;;4.43;48.75
74268;BME280;62638;51.362;12.472;2023-02-28T09:55:51;101668.88;;;4.76;46.75
74268;BME280;62638;51.362;12.472;2023-02-28T09:58:32;101660.41;;;4.49;47.82
74268;BME280;62638;51.362;12.472;2023-02-28T10:03:59;101651.63;;;4.09;47.96
74268;BME280;62638;51.362;12.472;2023-02-28T10:06:28;101662.94;;;4.52;47.43
74268;BME280;62638;51.362;12.472;2023-02-28T10:09:03;101658.63;;;4.49;46.58
74268;BME280;62638;51.362;12.472;2023-02-28T10:11:32;101663.50;;;4.77;48.53
74268;BME280;62638;51.362;12.472;2023-02-28T10:14:19;101650.97;;;4.43;46.08
74268;BME280;62638;51.362;12.472;2023-02-28T10:16:50;101649.03;;;4.47;48.28
74268;BME280;62638;51.362;12.472;2023-02-28T10:19:33;101655.06;;;4.69;46.19
74268;BME280;62638;51.362;12.472;2023-02-28T10:22:04;101655.16;;;4.29;47.21
74268;BME280;62638;51.362;12.472;2023-02-28T10:24:52;101658.69;;;4.29;47.32
74268;BME280;62638;51.362;12.472;2023-02-28T10:27:18;101650.72;;;4.85;47.33
74268;BME280;62638;51.362;12.472;2023-02-28T10:29:53;101649.66;;;4.89;45.20
74268;BME280;62638;51.362;12.472;2023-02-28T10:32:21;101647.25;;;5.02;46.40
74268;BME280;62638;51.362;12.472;2023-02-28T10:34:57;101642.78;;;5.38;46.97
74268;BME280;62638;51.362;12.472;2023-02-28T10:37:24;101647.44;;;5.16;48.16
74268;BME280;62638;51.362;12.472;2023-02-28T10:39:49;101643.47;;;5.25;46.37
74268;BME280;62638;51.362;12.472;2023-02-28T10:42:28;101649.78;;;5.22;44.91
74268;BME280;62638;51.362;12.472;2023-02-28T10:48:06;101646.81;;;5.11;45.59
74268;BME280;62638;51.362;12.472;2023-02-28T10:50:43;101645.34;;;4.87;47.07
74268;BME280;62638;51.362;12.472;2023-02-28T10:55:56;101632.06;;;5.23;45.80
74268;BME280;62638;51.362;12.472;2023-02-28T10:58:42;101630.06;;;5.62;46.97
74268;BME280;62638;51.362;12.472;2023-02-28T11:03:49;101623.72;;;5.13;46.85
74268;BME280;62638;51.362;12.472;2023-02-28T11:06:19;101621.22;;;5.96;45.98
74268;BME280;62638;51.362;12.472;2023-02-28T11:08:49;101618.03;;;5.72;46.23
74268;BME280;62638;51.362;12.472;2023-02-28T11:11:15;101614.97;;;5.63;46.29
74268;BME280;62638;51.362;12.472;2023-02-28T11:13:43;101618.44;;;5.47;46.75
74268;BME280;62638;51.362;12.472;2023-02-28T11:16:11;101602.78;;;5.93;47.35
74268;BME280;62638;51.362;12.472;2023-02-28T11:18:43;101614.25;;;4.53;47.38
74268;BME280;62638;51.362;12.472;2023-02-28T11:21:15;101619.91;;;4.27;49.83
74268;BME280;62638;51.362;12.472;2023-02-28T11:23:42;101598.31;;;3.97;51.01
74268;BME280;62638;51.362;12.472;2023-02-28T11:26:08;101614.47;;;4.48;51.09
74268;BME280;62638;51.362;12.472;2023-02-28T11:28:41;101611.31;;;3.83;51.24
74268;BME280;62638;51.362;12.472;2023-02-28T11:33:55;101615.88;;;3.79;50.27
74268;BME280;62638;51.362;12.472;2023-02-28T11:36:30;101616.59;;;3.22;53.09
74268;BME280;62638;51.362;12.472;2023-02-28T11:39:00;101614.06;;;3.19;53.77
74268;BME280;62638;51.362;12.472;2023-02-28T11:47:42;101617.78;;;5.25;49.62
74268;BME280;62638;51.362;12.472;2023-02-28T11:57:00;101617.31;;;5.34;46.63
74268;BME280;62638;51.362;12.472;2023-02-28T12:01:47;101604.03;;;6.34;45.24
74268;BME280;62638;51.362;12.472;2023-02-28T12:04:24;101604.34;;;6.46;43.98
74268;BME280;62638;51.362;12.472;2023-02-28T12:06:57;101593.31;;;5.87;45.83
74268;BME280;62638;51.362;12.472;2023-02-28T12:12:03;101590.81;;;6.17;45.22
74268;BME280;62638;51.362;12.472;2023-02-28T12:15:05;101583.00;;;6.30;46.95
74268;BME280;62638;51.362;12.472;2023-02-28T12:20:34;101591.06;;;5.28;47.00
74268;BME280;62638;51.362;12.472;2023-02-28T12:26:22;101565.72;;;5.73;45.55
74268;BME280;62638;51.362;12.472;2023-02-28T12:28:52;101576.63;;;6.01;45.36
74268;BME280;62638;51.362;12.472;2023-02-28T12:31:41;101576.00;;;5.79;46.19
74268;BME280;62638;51.362;12.472;2023-02-28T12:34:39;101575.66;;;5.86;47.05
74268;BME280;62638;51.362;12.472;2023-02-28T12:37:27;101564.13;;;5.86;46.72
74268;BME280;62638;51.362;12.472;2023-02-28T12:40:00;101559.91;;;5.99;46.19
74268;BME280;62638;51.362;12.472;2023-02-28T12:42:32;101567.75;;;6.65;45.67
74268;BME280;62638;51.362;12.472;2023-02-28T12:45:15;101545.91;;;5.96;45.67
74268;BME280;62638;51.362;12.472;2023-02-28T12:47:44;101559.78;;;5.68;46.53
74268;BME280;62638;51.362;12.472;2023-02-28T12:50:11;101552.03;;;6.45;48.06
74268;BME280;62638;51.362;12.472;2023-02-28T12:52:45;101542.59;;;6.70;45.87
74268;BME280;62638;51.362;12.472;2023-02-28T12:55:20;101544.16;;;6.27;44.67
74268;BME280;62638;51.362;12.472;2023-02-28T13:00:34;101546.69;;;6.13;48.07
74268;BME280;62638;51.362;12.472;2023-02-28T13:03:36;101531.16;;;5.90;46.43
74268;BME280;62638;51.362;12.472;2023-02-28T13:06:22;101543.59;;;5.89;47.78
74268;BME280;62638;51.362;12.472;2023-02-28T13:09:01;101538.97;;;6.09;45.91
74268;BME280;62638;51.362;12.472;2023-02-28T13:11:40;101529.63;;;5.69;46.44
74268;BME280;62638;51.362;12.472;2023-02-28T13:14:18;101529.53;;;6.03;45.85
74268;BME280;62638;51.362;12.472;2023-02-28T13:16:54;101526.16;;;5.67;45.24
74268;BME280;62638;51.362;12.472;2023-02-28T13:19:21;101534.31;;;5.97;45.46
74268;BME280;62638;51.362;12.472;2023-02-28T13:21:50;101525.09;;;5.54;46.72
74268;BME280;62638;51.362;12.472;2023-02-28T13:24:42;101535.75;;;5.36;46.88
74268;BME280;62638;51.362;12.472;2023-02-28T13:29:40;101530.47;;;5.69;47.46
74268;BME280;62638;51.362;12.472;2023-02-28T13:39:56;101527.56;;;5.57;46.49
74268;BME280;62638;51.362;12.472;2023-02-28T13:47:51;101509.88;;;5.40;47.17
74268;BME280;62638;51.362;12.472;2023-02-28T13:53:04;101512.31;;;5.10;46.96
74268;BME280;62638;51.362;12.472;2023-02-28T13:56:00;101512.19;;;5.13;47.52
74268;BME280;62638;51.362;12.472;2023-02-28T14:01:15;101500.84;;;5.10;48.12
74268;BME280;62638;51.362;12.472;2023-02-28T14:09:01;101492.16;;;5.73;48.76
74268;BME280;62638;51.362;12.472;2023-02-28T14:11:32;101481.69;;;5.37;47.34
74268;BME280;62638;51.362;12.472;2023-02-28T14:13:58;101486.84;;;5.73;49.35
74268;BME280;62638;51.362;12.472;2023-02-28T14:16:27;101501.66;;;6.10;47.39
74268;BME280;62638;51.362;12.472;2023-02-28T14:19:11;101493.56;;;5.96;47.99
74268;BME280;62638;51.362;12.472;2023-02-28T14:22:07;101502.75;;;5.40;47.77
74268;BME280;62638;51.362;12.472;2023-02-28T14:24:58;101493.94;;;5.90;48.83
74268;BME280;62638;51.362;12.472;2023-02-28T14:27:38;101494.28;;;5.67;48.60
74268;BME280;62638;51.362;12.472;2023-02-28T14:33:08;101491.28;;;5.90;47.54
74268;BME280;62638;51.362;12.472;2023-02-28T14:36:16;101496.16;;;6.13;48.01
74268;BME280;62638;51.362;12.472;2023-02-28T14:41:16;101498.16;;;6.25;47.29
74268;BME280;62638;51.362;12.472;2023-02-28T14:43:51;101492.88;;;5.92;46.87
74268;BME280;62638;51.362;12.472;2023-02-28T14:46:17;101496.22;;;5.96;48.03
74268;BME280;62638;51.362;12.472;2023-02-28T14:48:46;101489.63;;;5.55;47.19
74268;BME280;62638;51.362;12.472;2023-02-28T14:51:12;101478.31;;;5.51;48.47
74268;BME280;62638;51.362;12.472;2023-02-28T14:53:37;101484.13;;;5.58;49.40
74268;BME280;62638;51.362;12.472;2023-02-28T14:56:03;101483.19;;;5.59;48.31
74268;BME280;62638;51.362;12.472;2023-02-28T14:58:31;101490.00;;;5.64;48.09
74268;BME280;62638;51.362;12.472;2023-02-28T15:00:58;101480.91;;;5.68;47.28
74268;BME280;62638;51.362;12.472;2023-02-28T15:03:29;101481.50;;;5.40;47.79
74268;BME280;62638;51.362;12.472;2023-02-28T15:06:03;101478.47;;;5.31;48.60
74268;BME280;62638;51.362;12.472;2023-02-28T15:08:30;101480.66;;;5.40;48.49
74268;BME280;62638;51.362;12.472;2023-02-28T15:11:03;101477.25;;;5.21;48.42
74268;BME280;62638;51.362;12.472;2023-02-28T15:13:38;101480.81;;;5.37;48.80
74268;BME280;62638;51.362;12.472;2023-02-28T15:16:09;101484.78;;;4.95;48.85
74268;BME280;62638;51.362;12.472;2023-02-28T15:19:11;101482.72;;;5.35;50.78
74268;BME280;62638;51.362;12.472;2023-02-28T15:21:34;101487.59;;;5.60;49.62
74268;BME280;62638;51.362;12.472;2023-02-28T15:24:03;101482.56;;;5.54;48.44
74268;BME280;62638;51.362;12.472;2023-02-28T15:26:33;101481.16;;;5.14;48.21
74268;BME280;62638;51.362;12.472;2023-02-28T15:29:04;101480.78;;;4.87;48.88
74268;BME280;62638;51.362;12.472;2023-02-28T15:31:35;101468.75;;;4.80;49.37
74268;BME280;62638;51.362;12.472;2023-02-28T15:34:05;101467.75;;;4.82;49.46
74268;BME280;62638;51.362;12.472;2023-02-28T15:36:34;101482.47;;;5.05;49.90
74268;BME280;62638;51.362;12.472;2023-02-28T15:39:03;101473.81;;;5.01;50.83
74268;BME280;62638;51.362;12.472;2023-02-28T15:41:30;101476.19;;;4.90;50.42
74268;BME280;62638;51.362;12.472;2023-02-28T15:46:45;101497.56;;;5.22;51.25
74268;BME280;62638;51.362;12.472;2023-02-28T15:49:20;101479.69;;;5.08;50.09
74268;BME280;62638;51.362;12.472;2023-02-28T15:51:48;101496.25;;;5.13;50.62
74268;BME280;62638;51.362;12.472;2023-02-28T15:54:20;101487.72;;;4.89;50.61
74268;BME280;62638;51.362;12.472;2023-02-28T15:56:51;101487.41;;;4.78;51.10
74268;BME280;62638;51.362;12.472;2023-02-28T15:59:26;101478.25;;;4.67;51.35
74268;BME280;62638;51.362;12.472;2023-02-28T16:02:13;101490.28;;;4.56;52.98
74268;BME280;62638;51.362;12.472;2023-02-28T16:04:55;101488.09;;;4.10;53.75
74268;BME280;62638;51.362;12.472;2023-02-28T16:07:20;101482.44;;;3.61;56.65
74268;BME280;62638;51.362;12.472;2023-02-28T16:09:45;101473.34;;;3.28;58.11
74268;BME280;62638;51.362;12.472;2023-02-28T16:12:12;101483.22;;;3.04;58.97
74268;BME280;62638;51.362;12.472;2023-02-28T16:14:38;101479.59;;;2.87;59.88
74268;BME280;62638;51.362;12.472;2023-02-28T16:17:08;101483.63;;;2.75;59.01